Time;durP1;ratioP1;P1;durP2;ratioP2;P2;SDS_P1;SDS_P2;PMS_P1;PMS_P2;Temp;Humidity;BMP_temperature;BMP_pressure;BME280_temperature;BME280_humidity;BME280_pressure;Samples;Min_cycle;Max_cycle;Signal;HPM_P1;HPM_P2
2024/03/06 00:02:07;;;;;;;19.23;14.10;;;8.90;90.90;;;;;;5093376;28;20028;-37
2024/03/06 00:04:33;;;;;;;19.92;13.90;;;8.90;90.90;;;;;;5094655;28;20020;-37
2024/03/06 00:06:59;;;;;;;19.35;13.82;;;8.90;90.90;;;;;;5094508;28;20046;-39
2024/03/06 00:09:28;;;;;;;18.92;13.55;;;8.90;90.90;;;;;;5094929;28;20472;-36
2024/03/06 00:11:54;;;;;;;18.83;13.38;;;8.90;91.00;;;;;;5094475;28;20027;-36
2024/03/06 00:14:23;;;;;;;19.92;13.77;;;8.90;91.00;;;;;;5094557;28;20039;-37
2024/03/06 00:16:50;;;;;;;21.15;14.95;;;8.90;91.00;;;;;;5094458;28;20024;-36
2024/03/06 00:19:16;;;;;;;18.23;12.95;;;8.80;90.90;;;;;;5094332;28;20396;-38
2024/03/06 00:21:42;;;;;;;20.10;13.38;;;8.80;90.90;;;;;;5094635;28;20020;-38
2024/03/06 00:24:07;;;;;;;17.42;12.57;;;8.80;91.00;;;;;;5094427;28;20023;-37
2024/03/06 00:26:33;;;;;;;19.08;12.98;;;8.80;91.00;;;;;;5094460;28;20459;-37
2024/03/06 00:28:59;;;;;;;18.52;13.27;;;8.80;91.00;;;;;;5094485;28;20037;-38
2024/03/06 00:31:25;;;;;;;19.27;13.82;;;8.70;91.00;;;;;;5094401;28;20447;-37
2024/03/06 00:33:50;;;;;;;18.40;13.27;;;8.70;91.00;;;;;;5094075;28;20093;-37
2024/03/06 00:36:16;;;;;;;18.13;13.60;;;8.70;91.10;;;;;;5094028;28;20068;-37
2024/03/06 00:38:43;;;;;;;20.13;13.57;;;8.70;91.10;;;;;;5093713;28;20102;-37
2024/03/06 00:41:08;;;;;;;20.40;13.77;;;8.70;91.10;;;;;;5094228;28;20104;-38
2024/03/06 00:43:34;;;;;;;20.60;14.35;;;8.60;91.10;;;;;;5094102;28;20099;-38
2024/03/06 00:46:00;;;;;;;19.63;14.48;;;8.60;91.10;;;;;;5094219;28;20013;-37
2024/03/06 00:48:25;;;;;;;21.88;13.98;;;8.60;91.10;;;;;;5093780;28;20012;-36
2024/03/06 00:50:51;;;;;;;20.48;14.57;;;8.60;91.10;;;;;;5092656;28;20290;-39
2024/03/06 00:53:16;;;;;;;21.75;14.68;;;8.50;91.10;;;;;;5093579;28;20024;-37
2024/03/06 00:55:42;;;;;;;22.42;14.57;;;8.50;91.10;;;;;;5093798;28;20395;-37
2024/03/06 00:58:08;;;;;;;20.02;14.07;;;8.50;91.20;;;;;;5093942;28;20017;-37
2024/03/06 01:00:33;;;;;;;20.50;14.38;;;8.40;91.20;;;;;;5093898;28;20469;-38
2024/03/06 01:02:59;;;;;;;20.27;14.93;;;8.40;91.30;;;;;;5093752;28;20388;-38
2024/03/06 01:05:24;;;;;;;21.85;15.05;;;8.30;91.30;;;;;;5093447;28;20487;-37
2024/03/06 01:07:50;;;;;;;21.58;14.40;;;8.30;91.30;;;;;;5093487;28;20440;-39
2024/03/06 01:10:16;;;;;;;22.27;15.45;;;8.20;91.30;;;;;;5093435;28;20028;-37
2024/03/06 01:12:45;;;;;;;20.02;14.75;;;8.20;91.40;;;;;;5093349;28;20332;-38
2024/03/06 01:15:11;;;;;;;20.30;15.15;;;8.10;91.40;;;;;;5093695;28;20024;-37
2024/03/06 01:17:36;;;;;;;23.60;15.65;;;8.10;91.40;;;;;;5093280;28;20551;-37
2024/03/06 01:20:04;;;;;;;21.42;15.27;;;8.00;91.40;;;;;;5093183;28;20028;-37
2024/03/06 01:22:29;;;;;;;23.10;16.25;;;8.00;91.50;;;;;;5093218;28;20020;-36
2024/03/06 01:24:55;;;;;;;21.17;14.63;;;7.90;91.50;;;;;;5093091;28;20012;-35
2024/03/06 01:27:21;;;;;;;22.33;15.77;;;7.90;91.50;;;;;;5093104;28;20067;-38
2024/03/06 01:29:46;;;;;;;22.90;15.38;;;7.90;91.50;;;;;;5093116;28;20050;-36
2024/03/06 01:32:12;;;;;;;23.13;15.75;;;7.80;91.50;;;;;;5093593;28;20024;-38
2024/03/06 01:34:38;;;;;;;20.77;15.23;;;7.80;91.50;;;;;;5092608;28;20040;-39
2024/03/06 01:37:04;;;;;;;22.35;14.77;;;7.70;91.60;;;;;;5092835;28;20468;-37
2024/03/06 01:39:29;;;;;;;20.88;15.40;;;7.70;91.60;;;;;;5093211;28;20020;-36
2024/03/06 01:41:55;;;;;;;19.67;14.43;;;7.60;91.60;;;;;;5093083;28;20023;-37
2024/03/06 01:44:21;;;;;;;20.90;15.15;;;7.60;91.60;;;;;;5092563;28;20059;-38
2024/03/06 01:46:46;;;;;;;20.65;14.60;;;7.60;91.70;;;;;;5092854;28;20110;-37
2024/03/06 01:49:15;;;;;;;21.45;15.13;;;7.50;91.60;;;;;;5092798;28;20383;-35
2024/03/06 01:51:48;;;;;;;22.38;15.07;;;7.50;91.70;;;;;;5092712;28;20051;-36
2024/03/06 01:54:14;;;;;;;21.10;14.90;;;7.50;91.70;;;;;;5092400;28;20024;-37
2024/03/06 01:56:45;;;;;;;22.17;15.55;;;7.50;91.70;;;;;;5092666;28;20048;-36
2024/03/06 01:59:12;;;;;;;25.00;15.82;;;7.40;91.60;;;;;;5092848;28;20020;-39
2024/03/06 02:01:39;;;;;;;22.00;15.70;;;7.40;91.60;;;;;;5091928;28;20077;-37
2024/03/06 02:04:09;;;;;;;22.15;15.15;;;7.30;91.60;;;;;;5092502;28;20103;-36
2024/03/06 02:06:35;;;;;;;24.45;15.30;;;7.30;91.70;;;;;;5092145;28;20032;-35
2024/03/06 02:09:01;;;;;;;20.50;15.20;;;7.20;91.70;;;;;;5092240;28;20032;-37
2024/03/06 02:11:28;;;;;;;24.35;16.85;;;7.20;91.70;;;;;;5092411;28;20024;-36
2024/03/06 02:13:53;;;;;;;22.90;15.50;;;7.20;91.70;;;;;;5092381;28;20512;-36
2024/03/06 02:16:19;;;;;;;23.58;15.38;;;7.20;91.80;;;;;;5092144;28;20020;-37
2024/03/06 02:18:55;;;;;;;22.42;16.02;;;7.10;91.80;;;;;;5092026;28;20027;-36
2024/03/06 02:21:21;;;;;;;24.73;16.42;;;7.10;91.80;;;;;;5090873;28;20368;-37
2024/03/06 02:23:47;;;;;;;29.88;17.27;;;7.10;91.80;;;;;;5092133;28;20046;-37
2024/03/06 02:26:13;;;;;;;24.30;16.40;;;7.10;91.80;;;;;;5092442;28;20103;-36
2024/03/06 02:28:38;;;;;;;21.85;15.57;;;7.00;91.80;;;;;;5091861;28;20592;-36
2024/03/06 02:31:06;;;;;;;25.25;16.95;;;7.00;91.80;;;;;;5092014;28;20515;-37
2024/03/06 02:33:34;;;;;;;22.67;16.42;;;7.00;91.80;;;;;;5092220;28;20357;-37
2024/03/06 02:35:59;;;;;;;25.17;17.30;;;6.90;91.80;;;;;;5091900;28;20052;-37
2024/03/06 02:38:25;;;;;;;23.42;16.10;;;6.90;91.80;;;;;;5091760;28;20020;-36
2024/03/06 02:40:51;;;;;;;24.30;16.02;;;6.90;91.90;;;;;;5091798;28;20062;-36
2024/03/06 02:43:16;;;;;;;24.63;16.42;;;6.90;92.10;;;;;;5091658;28;20027;-37
2024/03/06 02:45:42;;;;;;;24.25;16.98;;;6.80;91.80;;;;;;5091696;28;20040;-36
2024/03/06 02:48:08;;;;;;;21.90;15.82;;;6.80;91.90;;;;;;5091994;28;20016;-34
2024/03/06 02:50:33;;;;;;;24.70;15.27;;;6.80;91.90;;;;;;5091906;28;20028;-36
2024/03/06 02:52:59;;;;;;;26.15;15.93;;;6.80;91.90;;;;;;5091382;28;20157;-36
2024/03/06 02:55:24;;;;;;;25.08;16.52;;;6.80;91.90;;;;;;5091864;28;20024;-36
2024/03/06 02:57:50;;;;;;;24.85;16.63;;;6.70;91.90;;;;;;5091542;28;20038;-36
2024/03/06 03:00:16;;;;;;;26.92;17.15;;;6.70;91.90;;;;;;5091810;28;20081;-36
2024/03/06 03:02:42;;;;;;;23.35;16.27;;;6.70;91.90;;;;;;5091387;28;20028;-39
2024/03/06 03:05:08;;;;;;;24.23;17.02;;;6.70;91.90;;;;;;5091487;28;20110;-36
2024/03/06 03:07:34;;;;;;;24.35;15.98;;;6.70;91.90;;;;;;5091786;28;20031;-36
2024/03/06 03:10:00;;;;;;;23.20;15.88;;;6.60;91.90;;;;;;5091482;28;20032;-36
2024/03/06 03:12:25;;;;;;;24.40;16.50;;;6.60;91.90;;;;;;5090375;28;20115;-35
2024/03/06 03:14:51;;;;;;;23.90;16.35;;;6.60;91.90;;;;;;5093658;28;20039;-36
2024/03/06 03:17:19;;;;;;;25.08;16.27;;;6.60;91.90;;;;;;5095565;28;20114;-36
2024/03/06 03:19:45;;;;;;;24.98;15.80;;;6.60;91.90;;;;;;5095566;28;20016;-35
2024/03/06 03:22:13;;;;;;;23.75;15.85;;;6.50;91.90;;;;;;5095476;28;20093;-36
2024/03/06 03:24:41;;;;;;;24.20;16.17;;;6.50;91.90;;;;;;5095316;28;20088;-37
2024/03/06 03:27:07;;;;;;;26.20;17.13;;;6.50;91.90;;;;;;5095430;28;20078;-36
2024/03/06 03:29:33;;;;;;;25.63;16.48;;;6.50;91.90;;;;;;5095402;28;20142;-36
2024/03/06 03:31:58;;;;;;;26.70;17.52;;;6.40;91.90;;;;;;5095606;28;20107;-37
2024/03/06 03:34:24;;;;;;;24.33;16.45;;;6.40;91.90;;;;;;5095311;28;20039;-37
2024/03/06 03:36:49;;;;;;;24.83;16.60;;;6.40;91.90;;;;;;5095080;28;20020;-37
2024/03/06 03:39:20;;;;;;;22.95;16.52;;;6.30;91.90;;;;;;5095250;28;20024;-36
2024/03/06 03:41:47;;;;;;;22.25;15.43;;;6.30;91.90;;;;;;5095104;28;20084;-36
2024/03/06 03:44:14;;;;;;;24.80;16.15;;;6.30;92.00;;;;;;5094903;28;20031;-37
2024/03/06 03:46:39;;;;;;;25.90;16.77;;;6.30;92.00;;;;;;5095403;28;20024;-38
2024/03/06 03:49:05;;;;;;;23.95;15.35;;;6.30;92.00;;;;;;5095321;28;20027;-37
2024/03/06 03:51:31;;;;;;;23.58;15.32;;;6.30;92.00;;;;;;5095192;28;20108;-38
2024/03/06 03:53:56;;;;;;;22.83;15.27;;;6.30;92.00;;;;;;5094901;28;20024;-37
2024/03/06 03:56:22;;;;;;;24.17;15.38;;;6.20;92.00;;;;;;5094805;28;20023;-38
2024/03/06 03:58:47;;;;;;;24.58;15.75;;;6.30;92.00;;;;;;5094418;28;20336;-37
2024/03/06 04:01:13;;;;;;;24.98;17.05;;;6.20;92.00;;;;;;5094475;28;20411;-35
2024/03/06 04:03:40;;;;;;;23.48;16.35;;;6.20;92.00;;;;;;5094881;28;20368;-38
2024/03/06 04:06:07;;;;;;;24.17;15.65;;;6.20;92.00;;;;;;5094820;28;20081;-36
2024/03/06 04:08:32;;;;;;;23.95;15.85;;;6.20;92.00;;;;;;5094806;28;20044;-36
2024/03/06 04:10:58;;;;;;;24.17;15.80;;;6.20;92.00;;;;;;5094578;28;20079;-36
2024/03/06 04:13:23;;;;;;;22.88;14.93;;;6.20;92.00;;;;;;5093105;28;20032;-37
2024/03/06 04:15:49;;;;;;;22.25;15.25;;;6.10;92.00;;;;;;5094847;28;20028;-37
2024/03/06 04:18:14;;;;;;;22.73;15.57;;;6.10;92.00;;;;;;5094744;28;20023;-38
2024/03/06 04:20:40;;;;;;;22.83;14.35;;;6.10;92.00;;;;;;5093100;28;20081;-38
2024/03/06 04:23:06;;;;;;;23.95;15.35;;;6.10;92.00;;;;;;5094345;28;20419;-38
2024/03/06 04:25:31;;;;;;;24.05;15.38;;;6.10;92.00;;;;;;5092854;28;20034;-38
2024/03/06 04:27:57;;;;;;;23.08;15.57;;;6.10;92.00;;;;;;5094560;28;20062;-37
2024/03/06 04:30:23;;;;;;;25.35;16.08;;;6.10;92.10;;;;;;5094391;28;20106;-38
2024/03/06 04:32:48;;;;;;;24.60;15.18;;;6.10;92.10;;;;;;5093878;28;20031;-36
2024/03/06 04:35:14;;;;;;;23.73;15.90;;;6.10;92.10;;;;;;5094075;28;20101;-38
2024/03/06 04:37:40;;;;;;;22.90;15.73;;;6.10;92.10;;;;;;5093825;28;20088;-37
2024/03/06 04:40:10;;;;;;;25.23;16.02;;;6.00;92.00;;;;;;5094421;28;20016;-36
2024/03/06 04:42:36;;;;;;;26.42;17.38;;;6.00;92.00;;;;;;5094167;28;20031;-35
2024/03/06 04:45:10;;;;;;;24.95;16.05;;;6.00;92.10;;;;;;5094037;28;20400;-37
2024/03/06 04:47:36;;;;;;;29.88;16.85;;;6.00;92.10;;;;;;5094231;28;20473;-36
2024/03/06 04:50:02;;;;;;;26.55;17.38;;;6.00;92.10;;;;;;5094225;28;20028;-37
2024/03/06 04:52:27;;;;;;;24.55;16.85;;;6.00;92.10;;;;;;5093459;28;20024;-34
2024/03/06 04:54:53;;;;;;;25.63;16.73;;;6.00;92.10;;;;;;5093732;28;20103;-37
2024/03/06 04:57:18;;;;;;;25.70;16.55;;;6.00;92.10;;;;;;5093509;28;20055;-35
2024/03/06 04:59:44;;;;;;;26.05;16.67;;;6.00;92.10;;;;;;5094049;28;20537;-36
2024/03/06 05:02:10;;;;;;;26.45;17.10;;;5.90;92.10;;;;;;5093715;28;20073;-36
2024/03/06 05:04:36;;;;;;;26.33;16.42;;;5.90;92.10;;;;;;5093196;28;20028;-35
2024/03/06 05:07:02;;;;;;;25.17;16.20;;;5.90;92.10;;;;;;5093511;28;20032;-38
2024/03/06 05:09:27;;;;;;;24.65;16.45;;;5.90;92.10;;;;;;5093459;28;20024;-45
2024/03/06 05:11:53;;;;;;;26.83;17.05;;;5.90;92.10;;;;;;5093314;28;20140;-36
2024/03/06 05:14:18;;;;;;;25.98;16.70;;;6.00;92.10;;;;;;5093301;28;20024;-34
2024/03/06 05:16:44;;;;;;;25.92;17.08;;;6.00;92.10;;;;;;5093268;28;20118;-37
2024/03/06 05:19:10;;;;;;;29.35;18.35;;;6.00;92.10;;;;;;5093146;28;20017;-37
2024/03/06 05:21:36;;;;;;;29.70;18.10;;;6.00;92.10;;;;;;5093659;28;20028;-37
2024/03/06 05:24:02;;;;;;;32.83;17.67;;;6.00;92.00;;;;;;5092890;28;20028;-38
2024/03/06 05:26:27;;;;;;;27.85;16.92;;;6.10;92.10;;;;;;5093192;28;20020;-36
2024/03/06 05:28:53;;;;;;;32.95;17.33;;;6.10;92.00;;;;;;5093162;28;20032;-37
2024/03/06 05:31:23;;;;;;;55.75;17.98;;;6.20;92.00;;;;;;5092839;28;20039;-36
2024/03/06 05:33:49;;;;;;;35.67;16.10;;;6.20;92.00;;;;;;5092626;28;20103;-37
2024/03/06 05:36:15;;;;;;;36.10;16.17;;;6.20;92.00;;;;;;5092878;28;20146;-37
2024/03/06 05:38:41;;;;;;;28.45;16.60;;;6.20;92.00;;;;;;5091074;28;20019;-37
2024/03/06 05:41:08;;;;;;;33.28;16.63;;;6.20;92.00;;;;;;5093151;28;20393;-32
2024/03/06 05:43:34;;;;;;;36.55;16.33;;;6.30;92.00;;;;;;5092728;28;20023;-36
2024/03/06 05:46:00;;;;;;;29.63;15.45;;;6.30;92.00;;;;;;5092808;28;20028;-36
2024/03/06 05:48:26;;;;;;;29.05;16.15;;;6.30;92.00;;;;;;5092942;28;20404;-38
2024/03/06 05:50:53;;;;;;;48.83;15.25;;;6.30;92.00;;;;;;5092936;28;20499;-37
2024/03/06 05:53:18;;;;;;;43.17;15.55;;;6.30;92.00;;;;;;5092442;28;20106;-37
2024/03/06 05:55:44;;;;;;;34.05;15.02;;;6.30;91.90;;;;;;5092737;28;20095;-37
2024/03/06 05:58:09;;;;;;;30.38;15.70;;;6.40;92.00;;;;;;5093126;28;20460;-36
2024/03/06 06:00:35;;;;;;;36.25;15.73;;;6.40;92.00;;;;;;5092858;28;20026;-37
2024/03/06 06:03:00;;;;;;;30.73;15.65;;;6.40;92.00;;;;;;5092330;28;20482;-37
2024/03/06 06:05:26;;;;;;;28.05;15.32;;;6.40;92.00;;;;;;5092397;28;20115;-37
2024/03/06 06:07:52;;;;;;;35.05;14.50;;;6.40;92.00;;;;;;5092531;28;20032;-37
2024/03/06 06:10:18;;;;;;;30.50;15.02;;;6.40;92.00;;;;;;5092631;28;20073;-37
2024/03/06 06:12:44;;;;;;;27.75;14.23;;;6.40;92.00;;;;;;5092377;28;20035;-37
2024/03/06 06:15:10;;;;;;;26.23;15.13;;;6.40;92.00;;;;;;5090982;28;20459;-37
2024/03/06 06:17:37;;;;;;;27.67;14.10;;;6.40;92.00;;;;;;5092161;28;20496;-35
2024/03/06 06:20:09;;;;;;;28.25;15.07;;;6.40;92.00;;;;;;5092513;28;20020;-37
2024/03/06 06:22:36;;;;;;;19.33;14.55;;;6.40;92.00;;;;;;5092201;28;20081;-37
2024/03/06 06:25:03;;;;;;;23.90;14.02;;;6.40;92.00;;;;;;5092053;28;20051;-35
2024/03/06 06:27:29;;;;;;;38.50;13.65;;;6.40;92.00;;;;;;5090672;28;20024;-36
2024/03/06 06:29:55;;;;;;;29.13;14.43;;;6.40;92.00;;;;;;5092103;28;20228;-37
2024/03/06 06:32:21;;;;;;;19.55;13.88;;;6.40;92.00;;;;;;5092253;28;20020;-37
2024/03/06 06:34:46;;;;;;;23.05;13.40;;;6.40;92.10;;;;;;5091641;28;20512;-37
2024/03/06 06:37:12;;;;;;;21.40;13.75;;;6.30;92.10;;;;;;5091881;28;20415;-36
2024/03/06 06:39:38;;;;;;;23.10;13.35;;;6.40;92.10;;;;;;5091783;28;20034;-36
2024/03/06 06:42:04;;;;;;;19.60;12.75;;;6.30;92.10;;;;;;5091826;28;20020;-37
2024/03/06 06:44:29;;;;;;;22.38;13.45;;;6.30;92.10;;;;;;5091635;28;20032;-36
2024/03/06 06:46:56;;;;;;;23.10;14.07;;;6.30;92.10;;;;;;5092032;28;20016;-36
2024/03/06 06:49:21;;;;;;;21.75;13.88;;;6.30;92.10;;;;;;5091252;28;20028;-37
2024/03/06 06:51:49;;;;;;;25.63;13.98;;;6.40;92.10;;;;;;5091541;28;20085;-36
2024/03/06 06:54:14;;;;;;;24.95;13.77;;;6.40;92.10;;;;;;5091781;28;20020;-36
2024/03/06 06:56:40;;;;;;;28.45;14.30;;;6.40;92.10;;;;;;5091541;28;20045;-37
2024/03/06 06:59:06;;;;;;;19.92;13.25;;;6.40;92.10;;;;;;5091750;28;20028;-36
2024/03/06 07:01:32;;;;;;;21.40;14.13;;;6.40;92.00;;;;;;5091440;28;20039;-36
2024/03/06 07:03:58;;;;;;;23.92;14.48;;;6.40;92.00;;;;;;5091294;28;20034;-35
2024/03/06 07:06:24;;;;;;;20.70;13.98;;;6.50;92.10;;;;;;5091885;28;20031;-38
2024/03/06 07:08:50;;;;;;;21.80;13.85;;;6.40;92.00;;;;;;5092019;28;20017;-37
2024/03/06 07:11:17;;;;;;;24.70;14.57;;;6.50;92.00;;;;;;5091524;28;20539;-36
2024/03/06 07:13:43;;;;;;;22.02;13.57;;;6.50;92.00;;;;;;5091414;28;20028;-36
2024/03/06 07:16:09;;;;;;;24.08;13.70;;;6.50;92.00;;;;;;5091331;28;20066;-35
2024/03/06 07:18:34;;;;;;;17.63;13.13;;;6.50;92.00;;;;;;5091451;28;20025;-37
2024/03/06 07:21:00;;;;;;;26.02;13.60;;;6.40;91.90;;;;;;5091448;28;20028;-37
2024/03/06 07:23:26;;;;;;;27.73;13.63;;;6.40;92.00;;;;;;5091606;28;20030;-37
2024/03/06 07:25:52;;;;;;;24.90;13.50;;;6.50;92.00;;;;;;5091385;28;20092;-35
2024/03/06 07:28:17;;;;;;;19.52;13.45;;;6.60;92.00;;;;;;5091326;28;20020;-35
2024/03/06 07:30:43;;;;;;;24.23;13.73;;;6.60;92.00;;;;;;5091372;28;20027;-37
2024/03/06 07:33:09;;;;;;;33.65;13.25;;;6.60;92.00;;;;;;5090994;28;20095;-36
2024/03/06 07:35:36;;;;;;;24.52;13.27;;;6.70;91.90;;;;;;5091190;28;20512;-37
2024/03/06 07:38:04;;;;;;;30.38;13.88;;;6.80;91.90;;;;;;5091377;28;20024;-36
2024/03/06 07:40:30;;;;;;;30.50;13.30;;;6.80;91.90;;;;;;5091338;28;20027;-36
2024/03/06 07:42:56;;;;;;;42.45;13.88;;;6.90;91.80;;;;;;5090913;28;20031;-36
2024/03/06 07:45:22;;;;;;;63.45;14.02;;;6.90;91.80;;;;;;5091352;28;20468;-37
2024/03/06 07:47:48;;;;;;;49.67;13.98;;;6.90;91.70;;;;;;5091165;28;20210;-37
2024/03/06 07:50:18;;;;;;;50.83;13.75;;;6.90;91.70;;;;;;5091147;28;20024;-37
2024/03/06 07:52:45;;;;;;;39.13;13.93;;;7.00;91.70;;;;;;5089663;28;20031;-35
2024/03/06 07:55:11;;;;;;;26.27;14.30;;;7.00;91.70;;;;;;5091274;28;20103;-36
2024/03/06 07:57:36;;;;;;;28.38;14.07;;;7.00;91.70;;;;;;5091407;28;20115;-37
2024/03/06 08:00:09;;;;;;;35.45;15.23;;;7.10;91.70;;;;;;5091829;28;20411;-37
2024/03/06 08:02:35;;;;;;;45.10;14.98;;;7.10;91.60;;;;;;5094596;28;20450;-38
2024/03/06 08:05:01;;;;;;;46.78;16.05;;;7.20;91.60;;;;;;5093459;28;20077;-36
2024/03/06 08:07:26;;;;;;;37.40;16.02;;;7.30;91.60;;;;;;5094532;28;20028;-36
2024/03/06 08:09:52;;;;;;;49.25;15.15;;;7.30;91.60;;;;;;5094772;28;20031;-37
2024/03/06 08:12:17;;;;;;;39.25;15.68;;;7.40;91.60;;;;;;5094424;28;20020;-33
2024/03/06 08:14:43;;;;;;;52.83;16.00;;;7.40;91.60;;;;;;5094411;28;20016;-37
2024/03/06 08:17:08;;;;;;;38.60;17.50;;;7.40;91.50;;;;;;5094638;28;20095;-35
2024/03/06 08:19:34;;;;;;;59.97;16.80;;;7.50;91.50;;;;;;5094343;28;20497;-38
2024/03/06 08:22:01;;;;;;;53.15;17.17;;;7.50;91.50;;;;;;5094414;28;20024;-37
2024/03/06 08:24:27;;;;;;;60.60;17.48;;;7.60;91.50;;;;;;5094508;28;20032;-37
2024/03/06 08:26:52;;;;;;;85.93;17.45;;;7.60;91.40;;;;;;5093222;28;20112;-39
2024/03/06 08:29:18;;;;;;;56.25;17.20;;;7.70;91.40;;;;;;5094514;28;20024;-35
2024/03/06 08:31:43;;;;;;;78.18;16.40;;;7.70;91.40;;;;;;5094718;28;20069;-39
2024/03/06 08:34:09;;;;;;;84.63;17.20;;;7.70;91.40;;;;;;5094035;28;20075;-37
2024/03/06 08:36:35;;;;;;;50.78;16.70;;;7.60;91.40;;;;;;5092893;28;20381;-37
2024/03/06 08:39:00;;;;;;;102.55;18.25;;;7.70;91.40;;;;;;5094347;28;20029;-37
2024/03/06 08:41:26;;;;;;;65.85;18.42;;;7.70;91.40;;;;;;5094070;28;20501;-33
2024/03/06 08:43:52;;;;;;;89.03;18.30;;;7.70;91.40;;;;;;5094136;28;20036;-37
2024/03/06 08:46:17;;;;;;;67.90;18.40;;;7.70;91.40;;;;;;5094230;28;20031;-37
2024/03/06 08:48:43;;;;;;;59.60;18.45;;;7.80;91.70;;;;;;5094018;28;20036;-37
2024/03/06 08:51:10;;;;;;;62.63;19.55;;;7.90;91.40;;;;;;5093846;28;20380;-36
2024/03/06 08:53:37;;;;;;;52.10;18.52;;;7.90;91.40;;;;;;5093849;28;20500;-36
2024/03/06 08:56:03;;;;;;;45.53;19.10;;;8.00;91.40;;;;;;5094007;28;20089;-37
2024/03/06 08:58:29;;;;;;;92.28;18.92;;;8.10;91.40;;;;;;5093756;28;20059;-35
2024/03/06 09:00:55;;;;;;;75.93;19.75;;;8.10;91.30;;;;;;5093569;28;20016;-35
2024/03/06 09:03:20;;;;;;;45.70;19.50;;;8.20;91.30;;;;;;5093361;28;20028;-37
2024/03/06 09:05:46;;;;;;;56.88;19.63;;;8.20;91.30;;;;;;5093322;28;20159;-35
2024/03/06 09:08:12;;;;;;;58.15;20.05;;;8.30;91.30;;;;;;5093550;28;20042;-38
2024/03/06 09:10:38;;;;;;;59.00;20.25;;;8.30;91.20;;;;;;5093763;28;20032;-36
2024/03/06 09:13:04;;;;;;;53.13;19.58;;;8.40;91.20;;;;;;5092738;28;20032;-37
2024/03/06 09:15:29;;;;;;;46.08;20.38;;;8.40;91.20;;;;;;5093446;28;20027;-37
2024/03/06 09:17:55;;;;;;;48.13;20.70;;;8.50;91.20;;;;;;5093337;28;20416;-37
2024/03/06 09:20:23;;;;;;;48.35;20.83;;;8.50;91.20;;;;;;5093473;28;20024;-37
2024/03/06 09:22:49;;;;;;;49.25;22.08;;;8.50;91.20;;;;;;5092906;28;20024;-36
2024/03/06 09:25:14;;;;;;;46.33;23.02;;;8.50;91.20;;;;;;5093135;28;20111;-37
2024/03/06 09:27:40;;;;;;;45.00;21.85;;;8.60;91.30;;;;;;5093346;28;20035;-38
2024/03/06 09:30:06;;;;;;;41.67;21.65;;;8.60;91.30;;;;;;5093227;28;20504;-37
2024/03/06 09:32:32;;;;;;;72.70;22.60;;;8.60;91.20;;;;;;5092758;28;20042;-40
2024/03/06 09:34:58;;;;;;;47.22;24.13;;;8.70;91.20;;;;;;5093004;28;20122;-37
2024/03/06 09:37:24;;;;;;;47.25;21.98;;;8.70;91.50;;;;;;5093433;28;20497;-41
2024/03/06 09:39:50;;;;;;;47.25;22.85;;;8.70;91.30;;;;;;5093439;28;20060;-38
2024/03/06 09:42:16;;;;;;;41.65;23.42;;;8.70;91.20;;;;;;5093502;28;20392;-38
2024/03/06 09:44:42;;;;;;;59.83;22.10;;;8.70;91.30;;;;;;5091563;28;20099;-36
2024/03/06 09:47:13;;;;;;;48.22;23.13;;;8.90;91.30;;;;;;5093028;28;20055;-36
2024/03/06 09:49:40;;;;;;;45.60;21.25;;;8.90;91.50;;;;;;5093015;28;20028;-36
2024/03/06 09:52:06;;;;;;;46.47;22.23;;;8.90;91.20;;;;;;5092597;28;20038;-35
2024/03/06 09:54:31;;;;;;;38.58;20.13;;;9.00;91.20;;;;;;5092845;28;20098;-37
2024/03/06 09:56:58;;;;;;;41.65;21.65;;;9.00;91.10;;;;;;5092557;28;20024;-35
2024/03/06 09:59:24;;;;;;;44.55;21.83;;;9.00;91.10;;;;;;5092631;28;20357;-37
2024/03/06 10:01:54;;;;;;;39.60;21.73;;;9.10;91.10;;;;;;5092371;28;20081;-36
2024/03/06 10:04:24;;;;;;;42.30;22.05;;;9.10;91.10;;;;;;5092592;28;20472;-37
2024/03/06 10:06:53;;;;;;;48.40;24.25;;;9.20;91.00;;;;;;5092529;28;20024;-37
2024/03/06 10:09:19;;;;;;;45.10;21.95;;;9.20;91.00;;;;;;5092285;28;20020;-36
2024/03/06 10:11:45;;;;;;;41.47;21.20;;;9.30;91.00;;;;;;5092456;28;20035;-39
2024/03/06 10:14:12;;;;;;;43.42;23.27;;;9.30;91.00;;;;;;5092016;28;20468;-36
2024/03/06 10:16:38;;;;;;;45.83;24.48;;;9.40;91.00;;;;;;5092449;28;20519;-37
2024/03/06 10:19:18;;;;;;;44.33;23.27;;;9.40;90.90;;;;;;5090790;28;20095;-36
2024/03/06 10:21:48;;;;;;;42.75;23.45;;;9.50;90.90;;;;;;5092180;28;20491;-38
2024/03/06 10:24:20;;;;;;;44.50;22.90;;;9.50;90.90;;;;;;5092179;28;20108;-37
2024/03/06 10:26:46;;;;;;;47.58;25.13;;;9.50;90.90;;;;;;5092301;28;20138;-37
2024/03/06 10:29:16;;;;;;;41.47;22.85;;;9.60;90.90;;;;;;5092065;28;20488;-38
2024/03/06 10:31:46;;;;;;;47.72;24.15;;;9.50;90.80;;;;;;5092038;28;20379;-37
2024/03/06 10:34:12;;;;;;;42.30;23.35;;;9.60;90.80;;;;;;5091506;28;20048;-38
2024/03/06 10:36:38;;;;;;;47.80;23.67;;;9.70;90.80;;;;;;5092016;28;20073;-36
2024/03/06 10:39:04;;;;;;;41.80;23.52;;;9.70;90.80;;;;;;5092184;28;20024;-37
2024/03/06 10:41:34;;;;;;;45.83;24.42;;;9.80;90.70;;;;;;5090462;28;20085;-38
2024/03/06 10:44:02;;;;;;;44.58;24.42;;;9.90;90.70;;;;;;5091860;28;20034;-36
2024/03/06 10:46:28;;;;;;;44.97;24.70;;;9.90;90.60;;;;;;5090568;28;20127;-37
2024/03/06 10:48:58;;;;;;;41.88;24.02;;;9.90;90.60;;;;;;5091685;28;20028;-39
2024/03/06 10:51:26;;;;;;;45.60;24.40;;;10.00;90.60;;;;;;5090370;28;20448;-37
2024/03/06 10:53:53;;;;;;;41.38;24.45;;;10.00;90.50;;;;;;5090273;28;20024;-37
2024/03/06 10:56:20;;;;;;;41.72;22.77;;;10.10;90.50;;;;;;5090408;28;20066;-36
2024/03/06 10:58:50;;;;;;;41.28;23.73;;;10.20;90.50;;;;;;5091460;28;20060;-37
2024/03/06 11:01:17;;;;;;;40.65;23.58;;;10.30;90.40;;;;;;5091812;28;20476;-37
2024/03/06 11:03:42;;;;;;;41.83;23.10;;;10.30;90.30;;;;;;5091570;28;20039;-36
2024/03/06 11:06:08;;;;;;;40.47;22.45;;;10.50;90.30;;;;;;5091751;28;20472;-36
2024/03/06 11:08:33;;;;;;;40.85;22.13;;;10.60;90.10;;;;;;5091784;28;20032;-37
2024/03/06 11:11:22;;;;;;;42.50;22.38;;;10.60;90.00;;;;;;5091612;28;20534;-38
2024/03/06 11:13:48;;;;;;;40.60;22.48;;;10.70;90.00;;;;;;5091651;28;20032;-37
2024/03/06 11:16:14;;;;;;;39.90;23.23;;;10.70;90.00;;;;;;5090377;28;20027;-38
2024/03/06 11:18:40;;;;;;;41.42;23.17;;;10.70;89.90;;;;;;5091615;28;20081;-35
2024/03/06 11:21:11;;;;;;;43.25;23.20;;;10.80;89.80;;;;;;5091574;28;20020;-36
2024/03/06 11:24:12;;;;;;;41.03;23.52;;;10.90;89.80;;;;;;5091067;28;20040;-35
2024/03/06 11:26:42;;;;;;;36.88;21.60;;;11.00;89.70;;;;;;5091555;28;20377;-42
2024/03/06 11:29:08;;;;;;;40.38;21.83;;;11.10;89.70;;;;;;5091356;28;20039;-37
2024/03/06 11:31:34;;;;;;;38.47;21.90;;;11.20;89.50;;;;;;5091443;28;20394;-37
2024/03/06 11:34:04;;;;;;;39.45;22.65;;;11.20;89.20;;;;;;5089763;28;20547;-34
2024/03/06 11:36:30;;;;;;;38.65;22.95;;;11.20;89.00;;;;;;5094194;28;20027;-37
2024/03/06 11:38:58;;;;;;;38.13;20.98;;;11.20;89.00;;;;;;5095328;28;20552;-38
2024/03/06 11:41:25;;;;;;;38.83;23.48;;;11.30;88.90;;;;;;5094002;28;20032;-37
2024/03/06 11:43:53;;;;;;;42.20;23.65;;;11.20;88.90;;;;;;5095103;28;20464;-36
2024/03/06 11:46:20;;;;;;;41.25;22.52;;;11.20;88.80;;;;;;5095104;28;20110;-36
2024/03/06 11:48:55;;;;;;;37.75;22.40;;;11.20;88.90;;;;;;5095495;28;20099;-37
2024/03/06 11:51:24;;;;;;;36.90;22.02;;;11.10;88.80;;;;;;5093765;28;20454;-37
2024/03/06 11:53:51;;;;;;;42.35;24.67;;;11.10;88.70;;;;;;5094822;28;20031;-36
2024/03/06 11:56:18;;;;;;;39.83;23.15;;;11.10;88.80;;;;;;5095342;28;20028;-37
2024/03/06 11:58:45;;;;;;;37.83;22.58;;;11.20;88.80;;;;;;5094916;28;20391;-38
2024/03/06 12:01:11;;;;;;;38.72;23.33;;;11.20;88.70;;;;;;5094695;28;20059;-38
2024/03/06 12:03:37;;;;;;;39.50;23.08;;;11.20;88.60;;;;;;5094688;28;20027;-37
2024/03/06 12:06:03;;;;;;;38.00;22.45;;;11.20;88.50;;;;;;5094712;28;20499;-37
2024/03/06 12:08:28;;;;;;;35.13;21.17;;;11.20;88.50;;;;;;5095014;28;20503;-38
2024/03/06 12:10:57;;;;;;;36.17;21.92;;;11.10;88.40;;;;;;5093518;28;20032;-38
2024/03/06 12:13:24;;;;;;;34.13;19.65;;;11.10;88.40;;;;;;5094728;28;20064;-37
2024/03/06 12:15:49;;;;;;;34.15;21.20;;;11.10;88.50;;;;;;5094884;28;20077;-36
2024/03/06 12:18:17;;;;;;;35.33;21.15;;;11.10;88.60;;;;;;5094803;28;20100;-39
2024/03/06 12:20:45;;;;;;;36.47;21.40;;;11.10;88.50;;;;;;5094731;28;20099;-36
2024/03/06 12:23:21;;;;;;;33.97;21.13;;;11.10;88.30;;;;;;5094123;28;20024;-37
2024/03/06 12:25:46;;;;;;;34.00;20.52;;;11.10;88.40;;;;;;5093141;28;20032;-37
2024/03/06 12:28:12;;;;;;;37.53;21.90;;;11.00;88.40;;;;;;5094934;28;20020;-38
2024/03/06 12:30:45;;;;;;;34.97;20.83;;;11.00;88.50;;;;;;5094401;28;20024;-38
2024/03/06 12:33:14;;;;;;;35.70;21.15;;;11.00;88.50;;;;;;5094432;28;20231;-37